Pamlico — WX6900 — position and weather

sailwx.info

Track history (hours):
 
Tides and Currents Weather Stations Pressure Air Temp Water Temp Dewpoint Dewpoint Depression Visibility Wind Speed Wind Dir Waves Ship Positions

Pamlico

Owner: PCS Phosphate, AURORA, NC. More information available from US FCC via Universal Licensing System and Coast Guard Vessel Documentation Center.

Last reported at 2015-Aug-02 19:32 UTC. Time now 2015-Aug-03 08:40 UTC.
Position N 34°58' W 076°41'.

Length 30 m; draft 3 m.

MMSI: 367361220.

Date/timePositionNaut miles runAvg speedWind from/ knotsBaromVisibWave heightAir tempDewpointWater temp
2015-Aug-02 19:32N 34°58' W 076°41'5 5.1
2015-Aug-02 18:33N 34°53' W 076°41'6 6.0
2015-Aug-02 17:34N 34°47' W 076°41'4 4.5
2015-Aug-02 16:33N 34°43' W 076°41'1 0.6
2015-Aug-02 15:33N 34°43' W 076°42'0 0.0
2015-Aug-02 14:33N 34°43' W 076°42'0 0.0
2015-Aug-02 13:33N 34°43' W 076°42'0 0.0
2015-Aug-02 12:33N 34°43' W 076°42'0 0.0
2015-Aug-02 11:33N 34°43' W 076°42'0 0.0
2015-Aug-02 10:33N 34°43' W 076°42'2 2.1
2015-Aug-02 09:33N 34°45' W 076°40'7 7.4
2015-Aug-02 08:33N 34°52' W 076°42'5 5.1
2015-Aug-02 07:33N 34°58' W 076°41'8 7.5
2015-Aug-02 06:31N 35°03' W 076°35'7 6.9
2015-Aug-02 05:31N 35°10' W 076°32'11 0.7
2015-Aug-01 13:28N 35°01' W 076°39'5 5.7
2015-Aug-01 12:33N 34°56' W 076°39'6 5.7
2015-Aug-01 11:33N 34°50' W 076°41'6 6.0
2015-Aug-01 10:33N 34°44' W 076°41'1 1.2
2015-Aug-01 09:33N 34°43' W 076°42'0 0.0
2015-Aug-01 08:33N 34°43' W 076°42'0 0.0
2015-Aug-01 07:33N 34°43' W 076°42'0 0.0
2015-Aug-01 06:33N 34°43' W 076°42'0 0.0
2015-Aug-01 05:33N 34°43' W 076°42'0 0.0
2015-Aug-01 04:33N 34°43' W 076°42'0 0.2
2015-Aug-01 03:33N 34°43' W 076°42'7 6.9
2015-Aug-01 02:33N 34°50' W 076°41'5 5.0
2015-Aug-01 01:33N 34°55' W 076°40'29 0.6
2015-Jul-30 01:33N 35°23' W 076°46'  
2015-Jul-27 20:13N 35°01' W 076°39'4 5.8
2015-Jul-27 19:33N 34°57' W 076°41'5 4.8
2015-Jul-27 18:33N 34°53' W 076°42'5 4.9
2015-Jul-27 17:33N 34°48' W 076°41'5 5.0
2015-Jul-27 16:33N 34°43' W 076°41'1 0.6
2015-Jul-27 15:33N 34°43' W 076°42'0 0.0
2015-Jul-27 14:33N 34°43' W 076°42'0 0.0
2015-Jul-27 13:33N 34°43' W 076°42'0 0.0
2015-Jul-27 12:33N 34°43' W 076°42'0 0.0
2015-Jul-27 11:33N 34°43' W 076°42'1 0.6
2015-Jul-27 10:33N 34°43' W 076°41'0 0.0
2015-Jul-27 09:33N 34°43' W 076°41'0 0.0
2015-Jul-27 08:33N 34°43' W 076°41'5 5.1
2015-Jul-27 07:33N 34°48' W 076°41'7 7.2
2015-Jul-27 06:33N 34°55' W 076°40'7 6.6
2015-Jul-27 05:26N 35°02' W 076°37'8 8.5
2015-Jul-27 04:31N 35°08' W 076°31'13 0.9
2015-Jul-26 13:30N 34°59' W 076°42'5 5.0
2015-Jul-26 12:33N 34°54' W 076°41'5 5.2
2015-Jul-26 11:33N 34°49' W 076°41'6 5.6
2015-Jul-26 10:33N 34°43' W 076°42'0 0.1
2015-Jul-26 09:33N 34°43' W 076°42'0 0.0
2015-Jul-26 08:33N 34°43' W 076°42'0 0.0
2015-Jul-26 07:33N 34°43' W 076°42'0 0.0
2015-Jul-26 06:33N 34°43' W 076°42'0 0.0
2015-Jul-26 05:33N 34°43' W 076°42'0 0.0
2015-Jul-26 04:33N 34°43' W 076°42'2 1.9
2015-Jul-26 03:33N 34°45' W 076°41'8 7.6
2015-Jul-26 02:33N 34°53' W 076°42'7 6.7
2015-Jul-26 01:32N 34°59' W 076°41'9 0.5
2015-Jul-25 07:30N 35°05' W 076°32'7 7.3
2015-Jul-25 06:33N 35°01' W 076°39'5 5.5
2015-Jul-25 05:33N 34°56' W 076°39'5 5.3
2015-Jul-25 04:33N 34°51' W 076°41'6 5.7
2015-Jul-25 03:33N 34°45' W 076°41'2 1.9
2015-Jul-25 02:33N 34°43' W 076°42'0 0.0
2015-Jul-25 01:33N 34°43' W 076°42'0 0.0
2015-Jul-25 00:33N 34°43' W 076°42'0 0.0
2015-Jul-24 23:33N 34°43' W 076°42'0 0.0
2015-Jul-24 22:33N 34°43' W 076°42'0 0.0
2015-Jul-24 21:33N 34°43' W 076°42'0 0.0
2015-Jul-24 20:33N 34°43' W 076°42'0 0.0
2015-Jul-24 19:33N 34°43' W 076°42'0 0.0
2015-Jul-24 18:33N 34°43' W 076°42'0 0.0
2015-Jul-24 17:33N 34°43' W 076°42'0 0.0
2015-Jul-24 16:33N 34°43' W 076°42'0 0.0
2015-Jul-24 15:33N 34°43' W 076°42'0 0.0
2015-Jul-24 14:33N 34°43' W 076°42'0 0.0
2015-Jul-24 13:33N 34°43' W 076°42'0 0.0
2015-Jul-24 12:33N 34°43' W 076°42'0 0.3
2015-Jul-24 11:33N 34°43' W 076°42'2 2.3
2015-Jul-24 10:33N 34°45' W 076°40'7 7.2
2015-Jul-24 09:33N 34°52' W 076°41'6 5.9
2015-Jul-24 08:33N 34°58' W 076°41'  
Track history (hours):
 
Tides and Currents Weather Stations Pressure Air Temp Water Temp Dewpoint Dewpoint Depression Visibility Wind Speed Wind Dir Waves Ship Positions

Pamlico

Owner: PCS Phosphate, AURORA, NC. More information available from US FCC via Universal Licensing System and Coast Guard Vessel Documentation Center.

Last reported at 2015-Aug-02 19:32 UTC. Time now 2015-Aug-03 08:40 UTC.
Position N 34°58' W 076°41'.

Length 30 m; draft 3 m.

MMSI: 367361220.

Date/timePositionNaut miles runAvg speedWind from/ knotsBaromVisibWave heightAir tempDewpointWater temp
2015-Aug-02 19:32N 34°58' W 076°41'5 5.1
2015-Aug-02 18:33N 34°53' W 076°41'6 6.0
2015-Aug-02 17:34N 34°47' W 076°41'4 4.5
2015-Aug-02 16:33N 34°43' W 076°41'1 0.6
2015-Aug-02 15:33N 34°43' W 076°42'0 0.0
2015-Aug-02 14:33N 34°43' W 076°42'0 0.0
2015-Aug-02 13:33N 34°43' W 076°42'0 0.0
2015-Aug-02 12:33N 34°43' W 076°42'0 0.0
2015-Aug-02 11:33N 34°43' W 076°42'0 0.0
2015-Aug-02 10:33N 34°43' W 076°42'2 2.1
2015-Aug-02 09:33N 34°45' W 076°40'7 7.4
2015-Aug-02 08:33N 34°52' W 076°42'5 5.1
2015-Aug-02 07:33N 34°58' W 076°41'8 7.5
2015-Aug-02 06:31N 35°03' W 076°35'7 6.9
2015-Aug-02 05:31N 35°10' W 076°32'11 0.7
2015-Aug-01 13:28N 35°01' W 076°39'5 5.7
2015-Aug-01 12:33N 34°56' W 076°39'6 5.7
2015-Aug-01 11:33N 34°50' W 076°41'6 6.0
2015-Aug-01 10:33N 34°44' W 076°41'1 1.2
2015-Aug-01 09:33N 34°43' W 076°42'0 0.0
2015-Aug-01 08:33N 34°43' W 076°42'0 0.0
2015-Aug-01 07:33N 34°43' W 076°42'0 0.0
2015-Aug-01 06:33N 34°43' W 076°42'0 0.0
2015-Aug-01 05:33N 34°43' W 076°42'0 0.0
2015-Aug-01 04:33N 34°43' W 076°42'0 0.2
2015-Aug-01 03:33N 34°43' W 076°42'7 6.9
2015-Aug-01 02:33N 34°50' W 076°41'5 5.0
2015-Aug-01 01:33N 34°55' W 076°40'29 0.6
2015-Jul-30 01:33N 35°23' W 076°46'  
2015-Jul-27 20:13N 35°01' W 076°39'4 5.8
2015-Jul-27 19:33N 34°57' W 076°41'5 4.8
2015-Jul-27 18:33N 34°53' W 076°42'5 4.9
2015-Jul-27 17:33N 34°48' W 076°41'5 5.0
2015-Jul-27 16:33N 34°43' W 076°41'1 0.6
2015-Jul-27 15:33N 34°43' W 076°42'0 0.0
2015-Jul-27 14:33N 34°43' W 076°42'0 0.0
2015-Jul-27 13:33N 34°43' W 076°42'0 0.0
2015-Jul-27 12:33N 34°43' W 076°42'0 0.0
2015-Jul-27 11:33N 34°43' W 076°42'1 0.6
2015-Jul-27 10:33N 34°43' W 076°41'0 0.0
2015-Jul-27 09:33N 34°43' W 076°41'0 0.0
2015-Jul-27 08:33N 34°43' W 076°41'5 5.1
2015-Jul-27 07:33N 34°48' W 076°41'7 7.2
2015-Jul-27 06:33N 34°55' W 076°40'7 6.6
2015-Jul-27 05:26N 35°02' W 076°37'8 8.5
2015-Jul-27 04:31N 35°08' W 076°31'13 0.9
2015-Jul-26 13:30N 34°59' W 076°42'5 5.0
2015-Jul-26 12:33N 34°54' W 076°41'5 5.2
2015-Jul-26 11:33N 34°49' W 076°41'6 5.6
2015-Jul-26 10:33N 34°43' W 076°42'0 0.1
2015-Jul-26 09:33N 34°43' W 076°42'0 0.0
2015-Jul-26 08:33N 34°43' W 076°42'0 0.0
2015-Jul-26 07:33N 34°43' W 076°42'0 0.0
2015-Jul-26 06:33N 34°43' W 076°42'0 0.0
2015-Jul-26 05:33N 34°43' W 076°42'0 0.0
2015-Jul-26 04:33N 34°43' W 076°42'2 1.9
2015-Jul-26 03:33N 34°45' W 076°41'8 7.6
2015-Jul-26 02:33N 34°53' W 076°42'7 6.7
2015-Jul-26 01:32N 34°59' W 076°41'9 0.5
2015-Jul-25 07:30N 35°05' W 076°32'7 7.3
2015-Jul-25 06:33N 35°01' W 076°39'5 5.5
2015-Jul-25 05:33N 34°56' W 076°39'5 5.3
2015-Jul-25 04:33N 34°51' W 076°41'6 5.7
2015-Jul-25 03:33N 34°45' W 076°41'2 1.9
2015-Jul-25 02:33N 34°43' W 076°42'0 0.0
2015-Jul-25 01:33N 34°43' W 076°42'0 0.0
2015-Jul-25 00:33N 34°43' W 076°42'0 0.0
2015-Jul-24 23:33N 34°43' W 076°42'0 0.0
2015-Jul-24 22:33N 34°43' W 076°42'0 0.0
2015-Jul-24 21:33N 34°43' W 076°42'0 0.0
2015-Jul-24 20:33N 34°43' W 076°42'0 0.0
2015-Jul-24 19:33N 34°43' W 076°42'0 0.0
2015-Jul-24 18:33N 34°43' W 076°42'0 0.0
2015-Jul-24 17:33N 34°43' W 076°42'0 0.0
2015-Jul-24 16:33N 34°43' W 076°42'0 0.0
2015-Jul-24 15:33N 34°43' W 076°42'0 0.0
2015-Jul-24 14:33N 34°43' W 076°42'0 0.0
2015-Jul-24 13:33N 34°43' W 076°42'0 0.0
2015-Jul-24 12:33N 34°43' W 076°42'0 0.3
2015-Jul-24 11:33N 34°43' W 076°42'2 2.3
2015-Jul-24 10:33N 34°45' W 076°40'7 7.2
2015-Jul-24 09:33N 34°52' W 076°41'6 5.9
2015-Jul-24 08:33N 34°58' W 076°41'  

Dump ship's entire track history